createdAt,value
2019-03-23T00:02:46.485Z,5.84
2019-03-23T00:05:49.584Z,5.85
2019-03-23T00:08:51.461Z,5.87
2019-03-23T00:11:53.345Z,5.85
2019-03-23T00:14:55.463Z,5.84
2019-03-23T00:17:57.568Z,5.83
2019-03-23T00:20:59.526Z,5.77
2019-03-23T00:24:01.377Z,5.72
2019-03-23T00:27:03.459Z,5.64
2019-03-23T00:30:08.235Z,5.60
2019-03-23T00:33:10.154Z,5.57
2019-03-23T00:36:12.062Z,5.57
2019-03-23T00:39:13.922Z,5.59
2019-03-23T00:42:15.790Z,5.44
2019-03-23T00:45:17.817Z,5.29
2019-03-23T00:48:19.696Z,5.32
2019-03-23T00:51:21.732Z,5.23
2019-03-23T00:54:23.667Z,5.09
2019-03-23T00:57:25.547Z,4.99
2019-03-23T01:00:27.497Z,4.93
2019-03-23T01:03:29.378Z,4.85
2019-03-23T01:06:31.274Z,4.76
2019-03-23T01:09:33.187Z,4.65
2019-03-23T01:12:35.061Z,4.51
2019-03-23T01:15:37.052Z,4.33
2019-03-23T01:18:39.016Z,4.15
2019-03-23T01:21:41.850Z,4.10
2019-03-23T01:24:43.787Z,4.02
2019-03-23T01:27:45.712Z,3.94
2019-03-23T01:30:47.549Z,4.00
2019-03-23T01:33:49.498Z,4.09
2019-03-23T01:36:51.326Z,4.16
2019-03-23T01:39:53.236Z,4.14
2019-03-23T01:42:55.986Z,4.11
2019-03-23T01:45:58.040Z,4.11
2019-03-23T01:48:59.862Z,4.10
2019-03-23T01:52:01.828Z,4.07
2019-03-23T01:55:05.399Z,4.02
2019-03-23T01:58:07.286Z,4.06
2019-03-23T02:01:09.170Z,4.04
2019-03-23T02:04:11.073Z,4.01
2019-03-23T02:07:14.003Z,3.94
2019-03-23T02:10:16.442Z,3.95
2019-03-23T02:13:18.254Z,4.10
2019-03-23T02:16:20.141Z,4.26
2019-03-23T02:19:22.124Z,4.26
2019-03-23T02:22:23.992Z,4.21
2019-03-23T02:25:25.884Z,4.23
2019-03-23T02:28:28.739Z,4.28
2019-03-23T02:31:30.740Z,4.38
2019-03-23T02:34:32.623Z,4.46
2019-03-23T02:37:34.506Z,4.53
2019-03-23T02:40:36.458Z,4.52
2019-03-23T02:43:39.713Z,4.53
2019-03-23T02:46:41.695Z,4.53
2019-03-23T02:49:43.640Z,4.38
2019-03-23T02:52:45.536Z,4.35
2019-03-23T02:55:47.578Z,4.35
2019-03-23T02:58:49.545Z,4.28
2019-03-23T03:01:52.147Z,4.22
2019-03-23T03:04:54.005Z,4.20
2019-03-23T03:07:55.930Z,4.16
2019-03-23T03:10:57.783Z,4.16
2019-03-23T03:13:59.694Z,4.18
2019-03-23T03:17:01.722Z,4.25
2019-03-23T03:20:06.379Z,4.27
2019-03-23T03:23:08.256Z,4.27
2019-03-23T03:26:10.113Z,4.17
2019-03-23T03:29:12.057Z,4.17
2019-03-23T03:32:13.911Z,4.13
2019-03-23T03:35:15.802Z,4.18
2019-03-23T03:38:18.899Z,4.19
2019-03-23T03:41:20.852Z,4.11
2019-03-23T03:44:22.734Z,4.12
2019-03-23T03:47:24.703Z,4.19
2019-03-23T03:50:26.608Z,4.21
2019-03-23T03:53:28.461Z,4.20
2019-03-23T03:56:30.339Z,4.20
2019-03-23T03:59:32.292Z,4.23
2019-03-23T04:02:34.155Z,4.17
2019-03-23T04:05:36.085Z,4.15
2019-03-23T04:08:37.945Z,4.17
2019-03-23T04:11:39.828Z,4.15
2019-03-23T04:14:41.764Z,4.03
2019-03-23T04:17:43.700Z,3.95
2019-03-23T04:20:45.665Z,3.90
2019-03-23T04:23:47.560Z,3.81
2019-03-23T04:26:49.388Z,3.81
2019-03-23T04:29:51.290Z,3.83
2019-03-23T04:32:53.175Z,3.80
2019-03-23T04:35:55.061Z,3.80
2019-03-23T04:38:56.946Z,3.82
2019-03-23T04:41:58.914Z,3.91
2019-03-23T04:45:00.817Z,3.89
2019-03-23T04:48:04.655Z,3.81
2019-03-23T04:51:06.507Z,3.78
2019-03-23T04:54:08.376Z,3.90
2019-03-23T04:57:10.280Z,3.96
2019-03-23T05:00:17.818Z,3.92
2019-03-23T05:03:19.683Z,3.97
2019-03-23T05:06:21.585Z,4.00
2019-03-23T05:09:23.456Z,4.11
2019-03-23T05:12:25.346Z,4.18
2019-03-23T05:15:27.291Z,4.21
2019-03-23T05:18:29.247Z,4.20
2019-03-23T05:21:31.192Z,4.19
2019-03-23T05:24:33.074Z,4.43
2019-03-23T05:27:34.970Z,4.76
2019-03-23T05:30:36.908Z,5.09
2019-03-23T05:33:38.957Z,5.55
2019-03-23T05:36:40.859Z,6.07
2019-03-23T05:39:42.979Z,6.51
2019-03-23T05:42:44.854Z,7.12
2019-03-23T05:45:47.023Z,7.76
2019-03-23T05:48:49.671Z,8.19
2019-03-23T05:51:51.668Z,8.79
2019-03-23T05:54:53.561Z,9.26
2019-03-23T05:57:56.060Z,9.85
2019-03-23T06:00:57.990Z,10.00
2019-03-23T06:03:59.879Z,10.44
2019-03-23T06:07:01.759Z,10.79
2019-03-23T06:10:05.823Z,10.84
2019-03-23T06:13:07.717Z,11.19
2019-03-23T06:16:09.690Z,11.61
2019-03-23T06:19:11.589Z,11.74
2019-03-23T06:22:13.599Z,11.93
2019-03-23T06:25:15.553Z,12.31
2019-03-23T06:28:17.522Z,12.71
2019-03-23T06:31:19.407Z,12.72
2019-03-23T06:34:21.296Z,12.79
2019-03-23T06:37:23.194Z,12.81
2019-03-23T06:40:25.052Z,12.99
2019-03-23T06:43:26.967Z,13.21
2019-03-23T06:46:29.019Z,13.43
2019-03-23T06:49:32.713Z,13.48
2019-03-23T06:52:36.702Z,13.62
2019-03-23T06:55:39.213Z,13.74
2019-03-23T06:58:42.978Z,13.95
2019-03-23T07:01:47.919Z,14.04
2019-03-23T07:04:49.985Z,14.08
2019-03-23T07:07:51.873Z,14.65
2019-03-23T07:10:53.771Z,14.79
2019-03-23T07:13:55.669Z,14.89
2019-03-23T07:16:57.722Z,14.89
2019-03-23T07:19:59.689Z,15.40
2019-03-23T07:23:01.655Z,16.03
2019-03-23T07:26:03.563Z,16.29
2019-03-23T07:29:05.501Z,16.55
2019-03-23T07:32:07.388Z,16.81
2019-03-23T07:35:09.325Z,16.99
2019-03-23T07:38:11.240Z,17.05
2019-03-23T07:41:13.146Z,17.06
2019-03-23T07:44:15.040Z,17.27
2019-03-23T07:47:16.864Z,17.35
2019-03-23T07:50:19.379Z,17.41
2019-03-23T07:53:21.300Z,17.69
2019-03-23T07:56:23.289Z,17.85
2019-03-23T07:59:25.330Z,17.97
2019-03-23T08:02:27.349Z,18.02
2019-03-23T08:05:29.362Z,18.11
2019-03-23T08:08:31.347Z,18.17
2019-03-23T08:11:33.257Z,18.19
2019-03-23T08:14:36.217Z,18.20
2019-03-23T08:17:38.381Z,18.19
2019-03-23T08:20:40.348Z,18.10
2019-03-23T08:23:42.451Z,17.72
2019-03-23T08:26:44.380Z,17.50
2019-03-23T08:29:46.334Z,17.19
2019-03-23T08:32:48.424Z,17.01
2019-03-23T08:35:50.308Z,17.04
2019-03-23T08:38:52.236Z,16.65
2019-03-23T08:41:54.219Z,16.53
2019-03-23T08:44:56.108Z,16.57
2019-03-23T08:47:58.094Z,16.50
2019-03-23T08:51:00.060Z,16.30
2019-03-23T08:54:01.996Z,16.40
2019-03-23T08:57:03.946Z,16.49
2019-03-23T09:00:06.791Z,16.33
2019-03-23T09:03:10.214Z,16.32
2019-03-23T09:06:12.134Z,16.25
2019-03-23T09:09:14.094Z,16.36
2019-03-23T09:12:16.085Z,16.32
2019-03-23T09:15:18.565Z,16.29
2019-03-23T09:18:20.453Z,16.15
2019-03-23T09:21:22.479Z,16.34
2019-03-23T09:24:24.474Z,16.37
2019-03-23T09:27:26.436Z,16.43
2019-03-23T09:30:28.286Z,16.60
2019-03-23T09:33:30.210Z,16.58
2019-03-23T09:36:32.110Z,16.38
2019-03-23T09:39:34.040Z,16.51
2019-03-23T09:42:35.909Z,16.48
2019-03-23T09:45:37.894Z,16.43
2019-03-23T09:48:39.839Z,16.40
2019-03-23T09:51:41.807Z,16.44
2019-03-23T09:54:43.722Z,16.53
2019-03-23T09:57:45.629Z,16.62
2019-03-23T10:00:47.520Z,16.51
2019-03-23T10:03:49.441Z,16.46
2019-03-23T10:06:51.353Z,16.55
2019-03-23T10:09:53.245Z,16.58
2019-03-23T10:12:55.134Z,16.47
2019-03-23T10:15:57.039Z,16.58
2019-03-23T10:18:58.918Z,16.59
2019-03-23T10:22:00.946Z,16.63
2019-03-23T10:25:05.073Z,16.78
2019-03-23T10:28:07.030Z,16.79
2019-03-23T10:31:08.908Z,16.79
2019-03-23T10:34:10.822Z,16.88
2019-03-23T10:37:12.723Z,16.79
2019-03-23T10:40:14.630Z,16.98
2019-03-23T10:43:16.560Z,17.12
2019-03-23T10:46:18.502Z,17.07
2019-03-23T10:49:20.372Z,17.11
2019-03-23T10:52:22.369Z,17.20
2019-03-23T10:55:24.312Z,17.22
2019-03-23T10:58:26.238Z,17.18
2019-03-23T11:01:28.170Z,17.41
2019-03-23T11:04:30.169Z,17.33
2019-03-23T11:07:32.079Z,17.44
2019-03-23T11:10:41.583Z,17.52
2019-03-23T11:13:37.873Z,17.56
2019-03-23T11:16:39.783Z,17.59
2019-03-23T11:19:41.734Z,17.76
2019-03-23T11:22:43.739Z,17.78
2019-03-23T11:25:45.789Z,17.76
2019-03-23T11:28:47.746Z,17.87
2019-03-23T11:31:49.706Z,18.04
2019-03-23T11:34:51.760Z,17.99
2019-03-23T11:37:54.042Z,18.01
2019-03-23T11:40:56.438Z,18.12
2019-03-23T11:43:58.427Z,18.26
2019-03-23T11:47:00.319Z,18.31
2019-03-23T11:50:03.698Z,18.38
2019-03-23T11:53:06.884Z,18.35
2019-03-23T11:56:08.830Z,18.47
2019-03-23T11:59:10.706Z,18.57
2019-03-23T12:02:12.668Z,18.49
2019-03-23T12:05:14.550Z,18.53
2019-03-23T12:08:17.162Z,18.47
2019-03-23T12:11:19.034Z,18.57
2019-03-23T12:14:20.947Z,18.65
2019-03-23T12:17:22.791Z,18.71
2019-03-23T12:20:24.749Z,18.64
2019-03-23T12:23:26.665Z,18.70
2019-03-23T12:26:28.704Z,18.71
2019-03-23T12:29:30.591Z,18.76
2019-03-23T12:32:32.486Z,18.83
2019-03-23T12:35:34.434Z,18.99
2019-03-23T12:38:36.397Z,19.20
2019-03-23T12:41:38.307Z,19.27
2019-03-23T12:44:40.241Z,19.19
2019-03-23T12:47:42.185Z,19.17
2019-03-23T12:50:45.583Z,19.06
2019-03-23T12:53:47.616Z,19.14
2019-03-23T12:56:49.549Z,19.23
2019-03-23T12:59:51.530Z,19.14
2019-03-23T13:02:53.434Z,19.17
2019-03-23T13:05:55.327Z,19.25
2019-03-23T13:08:57.286Z,19.39
2019-03-23T13:11:59.183Z,19.48
2019-03-23T13:15:01.124Z,19.29
2019-03-23T13:18:03.277Z,19.27
2019-03-23T13:21:05.316Z,19.37
2019-03-23T13:24:07.275Z,19.43
2019-03-23T13:27:09.299Z,19.42
2019-03-23T13:30:13.442Z,19.41
2019-03-23T13:33:15.317Z,19.41
2019-03-23T13:36:17.350Z,19.38
2019-03-23T13:39:19.235Z,19.46
2019-03-23T13:42:21.196Z,19.61
2019-03-23T13:45:23.120Z,19.56
2019-03-23T13:48:25.126Z,19.57
2019-03-23T13:51:28.764Z,19.70
2019-03-23T13:54:30.863Z,19.58
2019-03-23T13:57:32.729Z,19.61
2019-03-23T14:00:34.865Z,19.64
2019-03-23T14:03:36.783Z,19.59
2019-03-23T14:06:38.790Z,19.63
2019-03-23T14:09:40.642Z,19.47
2019-03-23T14:12:42.560Z,19.40
2019-03-23T14:15:44.488Z,19.54
2019-03-23T14:18:46.476Z,19.62
2019-03-23T14:21:48.445Z,19.58
2019-03-23T14:24:50.384Z,19.61
2019-03-23T14:27:52.380Z,19.66
2019-03-23T14:30:54.351Z,19.65
2019-03-23T14:33:56.268Z,19.74
2019-03-23T14:36:58.185Z,19.78
2019-03-23T14:40:00.047Z,19.75
2019-03-23T14:43:01.985Z,19.68
2019-03-23T14:46:03.936Z,19.64
2019-03-23T14:49:05.831Z,19.45
2019-03-23T14:52:07.826Z,19.49
2019-03-23T14:55:09.887Z,19.49
2019-03-23T14:58:11.803Z,19.63
2019-03-23T15:01:13.717Z,19.63
2019-03-23T15:04:15.657Z,19.63
2019-03-23T15:07:17.605Z,19.45
2019-03-23T15:10:19.506Z,19.43
2019-03-23T15:13:21.470Z,19.39
2019-03-23T15:16:23.378Z,19.36
2019-03-23T15:19:25.319Z,19.25
2019-03-23T15:22:27.215Z,19.23
2019-03-23T15:25:29.615Z,19.19
2019-03-23T15:28:31.648Z,19.11
2019-03-23T15:31:33.578Z,19.07
2019-03-23T15:34:35.524Z,19.08
2019-03-23T15:37:37.469Z,19.00
2019-03-23T15:40:39.395Z,18.95
2019-03-23T15:43:41.372Z,18.92
2019-03-23T15:46:43.255Z,18.93
2019-03-23T15:49:45.198Z,18.87
2019-03-23T15:52:47.116Z,18.83
2019-03-23T15:55:49.118Z,18.76
2019-03-23T15:58:51.023Z,18.73
2019-03-23T16:01:53.003Z,18.74
2019-03-23T16:04:54.943Z,18.64
2019-03-23T16:07:56.882Z,18.61
2019-03-23T16:10:58.853Z,18.58
2019-03-23T16:14:00.874Z,18.59
2019-03-23T16:17:02.786Z,18.60
2019-03-23T16:20:09.719Z,18.53
2019-03-23T16:23:11.661Z,18.49
2019-03-23T16:26:13.624Z,18.40
2019-03-23T16:29:15.711Z,18.35
2019-03-23T16:32:17.711Z,18.35
2019-03-23T16:35:19.610Z,18.34
2019-03-23T16:38:21.593Z,18.28
2019-03-23T16:41:23.496Z,18.28
2019-03-23T16:44:25.455Z,18.26
2019-03-23T16:47:29.108Z,18.17
2019-03-23T16:50:31.989Z,18.10
2019-03-23T16:53:33.958Z,17.97
2019-03-23T16:56:35.986Z,17.84
2019-03-23T16:59:37.911Z,17.71
2019-03-23T17:02:39.810Z,17.56
2019-03-23T17:05:41.778Z,17.40
2019-03-23T17:08:43.727Z,17.22
2019-03-23T17:11:45.618Z,17.06
2019-03-23T17:14:47.571Z,16.88
2019-03-23T17:17:49.515Z,16.71
2019-03-23T17:20:51.416Z,16.57
2019-03-23T17:23:53.311Z,16.45
2019-03-23T17:26:55.285Z,16.36
2019-03-23T17:29:57.484Z,16.23
2019-03-23T17:32:59.359Z,16.12
2019-03-23T17:36:01.297Z,16.00
2019-03-23T17:39:04.908Z,15.91
2019-03-23T17:42:07.819Z,15.82
2019-03-23T17:45:10.075Z,15.71
2019-03-23T17:48:12.058Z,15.59
2019-03-23T17:51:13.930Z,15.49
2019-03-23T17:54:15.903Z,15.40
2019-03-23T17:57:17.841Z,15.32
2019-03-23T18:00:19.780Z,15.20
2019-03-23T18:03:21.681Z,15.09
2019-03-23T18:06:23.594Z,15.00
2019-03-23T18:09:25.481Z,14.94
2019-03-23T18:12:27.437Z,14.87
2019-03-23T18:15:29.822Z,14.81
2019-03-23T18:18:31.812Z,14.78
2019-03-23T18:21:33.717Z,14.75
2019-03-23T18:24:35.624Z,14.69
2019-03-23T18:27:37.557Z,14.67
2019-03-23T18:30:40.628Z,14.55
2019-03-23T18:33:42.613Z,14.49
2019-03-23T18:36:44.725Z,14.39
2019-03-23T18:39:46.734Z,14.36
2019-03-23T18:42:48.608Z,14.32
2019-03-23T18:45:50.558Z,14.22
2019-03-23T18:48:52.504Z,14.10
2019-03-23T18:51:54.434Z,14.06
2019-03-23T18:54:56.345Z,13.99
2019-03-23T18:57:58.359Z,13.87
2019-03-23T19:01:00.312Z,13.83
2019-03-23T19:04:02.313Z,13.86
2019-03-23T19:07:04.209Z,13.90
2019-03-23T19:10:06.427Z,13.93
2019-03-23T19:13:08.415Z,13.96
2019-03-23T19:16:10.304Z,13.93
2019-03-23T19:19:12.501Z,13.90
2019-03-23T19:22:14.440Z,13.83
2019-03-23T19:25:18.528Z,13.79
2019-03-23T19:28:20.245Z,13.79
2019-03-23T19:31:22.968Z,13.80
2019-03-23T19:34:27.114Z,13.79
2019-03-23T19:37:29.064Z,13.78
2019-03-23T19:40:31.006Z,13.80
2019-03-23T19:43:33.297Z,13.84
2019-03-23T19:46:35.239Z,13.86
2019-03-23T19:49:37.205Z,13.84
2019-03-23T19:52:39.409Z,13.85
2019-03-23T19:55:48.857Z,13.88
2019-03-23T19:58:50.810Z,13.88
2019-03-23T20:01:52.743Z,13.87
2019-03-23T20:04:54.635Z,13.85
2019-03-23T20:07:56.550Z,13.82
2019-03-23T20:10:58.448Z,13.76
2019-03-23T20:14:00.437Z,13.69
2019-03-23T20:17:02.323Z,13.65
2019-03-23T20:20:06.184Z,13.59
2019-03-23T20:23:10.473Z,13.49
2019-03-23T20:26:12.343Z,13.39
2019-03-23T20:29:14.373Z,13.30
2019-03-23T20:32:16.379Z,13.17
2019-03-23T20:35:18.359Z,13.06
2019-03-23T20:38:20.333Z,12.92
2019-03-23T20:41:22.209Z,12.77
2019-03-23T20:44:24.092Z,12.69
2019-03-23T20:47:26.028Z,12.58
2019-03-23T20:50:29.800Z,12.47
2019-03-23T20:53:32.195Z,12.37
2019-03-23T20:56:34.164Z,12.23
2019-03-23T20:59:36.118Z,12.13
2019-03-23T21:02:38.087Z,11.99
2019-03-23T21:05:39.994Z,11.86
2019-03-23T21:08:41.954Z,11.77
2019-03-23T21:11:43.909Z,11.66
2019-03-23T21:14:45.825Z,11.54
2019-03-23T21:17:51.446Z,11.44
2019-03-23T21:20:51.640Z,11.32
2019-03-23T21:23:53.587Z,11.20
2019-03-23T21:26:55.472Z,11.12
2019-03-23T21:29:57.397Z,11.05
2019-03-23T21:32:59.511Z,10.92
2019-03-23T21:36:01.417Z,10.86
2019-03-23T21:39:05.443Z,10.81
2019-03-23T21:42:08.504Z,10.72
2019-03-23T21:45:10.874Z,10.62
2019-03-23T21:48:12.875Z,10.57
2019-03-23T21:51:14.764Z,10.54
2019-03-23T21:54:16.745Z,10.48
2019-03-23T21:57:18.643Z,10.44
2019-03-23T22:00:29.417Z,10.43
2019-03-23T22:03:31.334Z,10.38
2019-03-23T22:06:33.242Z,10.36
2019-03-23T22:09:35.106Z,10.31
2019-03-23T22:12:37.006Z,10.31
2019-03-23T22:15:38.942Z,10.29
2019-03-23T22:18:40.910Z,10.26
2019-03-23T22:21:42.856Z,10.18
2019-03-23T22:24:44.782Z,10.13
2019-03-23T22:27:46.809Z,10.03
2019-03-23T22:30:48.788Z,10.02
2019-03-23T22:33:50.789Z,9.97
2019-03-23T22:36:52.738Z,9.93
2019-03-23T22:39:54.679Z,9.85
2019-03-23T22:42:56.745Z,9.89
2019-03-23T22:45:58.666Z,9.93
2019-03-23T22:49:00.619Z,10.01
2019-03-23T22:52:02.535Z,10.03
2019-03-23T22:55:05.796Z,9.98
2019-03-23T22:58:07.700Z,10.00
2019-03-23T23:01:10.481Z,10.03
2019-03-23T23:04:12.343Z,10.07
2019-03-23T23:07:14.318Z,10.08
2019-03-23T23:10:16.174Z,10.05
2019-03-23T23:13:18.062Z,10.01
2019-03-23T23:16:19.975Z,9.98
2019-03-23T23:19:21.930Z,10.03
2019-03-23T23:22:23.823Z,10.05
2019-03-23T23:25:25.759Z,10.06
2019-03-23T23:28:27.711Z,10.14
2019-03-23T23:31:30.877Z,10.22
2019-03-23T23:34:32.867Z,10.28
2019-03-23T23:37:34.900Z,10.29
2019-03-23T23:40:36.819Z,10.33
2019-03-23T23:43:38.766Z,10.31
2019-03-23T23:46:41.542Z,10.30
2019-03-23T23:49:44.819Z,10.25
2019-03-23T23:52:46.715Z,10.12
2019-03-23T23:55:48.650Z,10.00
2019-03-23T23:58:50.522Z,9.90
